Plainfield, IA (50666)

1:07 AM CST on February 07, 2016 (GMT -0600)
Wartburg College Observatory | | Change Station
CLOSE
Current Station
Personal Weather Station
Location: Waverly, IA
Elevation: 928 ft
Nearby Weather Stations
Active Advisory: Blizzard Watch

Elev 928 ft 42.73 °N, 92.49 °W | Updated 1 second ago

Overcast
Overcast
35.7 °F
Feels Like 27 °F
N
13.8
Wind Variable Wind from South
Gusts 13.8 mph

Today
High -- | Low -- °F
--% Chance of Precip.
Yesterday
High -- | Low -- °F
Precip. -- in
Pressure 29.82 in
Visibility 10.0 miles
Clouds Overcast 11000 ft
Windchill 27 °F
Dew Point 32 °F
Humidity 85%
Rainfall 0.00 in
Snow Depth Not available.
7:18 AM 5:30 PM
Waning Crescent, 2% visible
METAR KCCY 070655Z AUTO 21012KT 10SM OVC110 01/01 A2982 RMK AO2
Pressure 29.82 in
Visibility 10.0 miles
Clouds Overcast 11000 ft
Windchill 27 °F
Dew Point 32 °F
Humidity 85%
Rainfall 0.00 in
Snow Depth Not available.
7:18 AM 5:30 PM
Waning Crescent, 2% visible
METAR KCCY 070655Z AUTO 21012KT 10SM OVC110 01/01 A2982 RMK AO2

10-Day Weather Forecast

Almanac

Astronomy

Feb. 07, 2016 Rise Set
Actual Time
Civil Twilight
Nautical Twilight
Astronomical Twilight
Moon
Length of Visible Light
Length of Day
Tomorrow will be .
, % of the Moon is Illuminated

Today's Extremes

State Highs State Lows

Community

WunderPhotos

Upload Photos

1,891,174 photos uploaded!

WunderBlog® & News

Nearby

Air Quality

  Air Quality AQ Index Pollutant
Not available.

Snow Depth

Station Depth Elevation

Earthquake Activity

City Distance Mag. Time & Date
Minimum magnitude displayed is 2.5.

Coastal Water Temperatures

Place Temperature

Stations

Nearby Weather Stations

Station Location Temp. Windchill Dew Point Humidity Wind Precip. Elev Updated Type
                   

Watches & Warnings

Blizzard Watch
Issued: 9:56 PM CST Feb. 6, 2016 – National Weather Service

... Blizzard watch remains in effect from Sunday afternoon through
Monday afternoon...

* timing... late Sunday afternoon through Monday afternoon.

* Storm total snow accumulations... up to 2 inches with locally
higher amounts.

* Winds/visibility... northwest wind 30 to 40 mph with gusts to
near 50 mph. Visibilities may drop below one quarter mile for an
extended period with near whiteout conditions possible at times.

* Impacts... considerable blowing and drifting snow can create
treacherous travel conditions and even lead to nearly
impossible travel in some areas.

Precautionary/preparedness actions...
a blizzard watch means there is a potential for falling and/or
blowing snow with strong winds and extremely poor visibilities.
This can lead to whiteout conditions and make travel very
dangerous.



Fab